createdAt,value
2022-12-11T00:00:03.799Z,60.17
2022-12-11T00:02:30.212Z,58.97
2022-12-11T00:04:56.751Z,59.78
2022-12-11T00:07:23.237Z,58.71
2022-12-11T00:09:49.610Z,58.59
2022-12-11T00:12:16.017Z,56.70
2022-12-11T00:14:42.323Z,59.37
2022-12-11T00:17:08.891Z,56.99
2022-12-11T00:19:35.383Z,56.90
2022-12-11T00:22:01.964Z,56.08
2022-12-11T00:24:29.633Z,56.13
2022-12-11T00:26:56.403Z,57.79
2022-12-11T00:29:23.013Z,57.87
2022-12-11T00:31:49.565Z,59.42
2022-12-11T00:34:15.998Z,60.17
2022-12-11T00:36:42.546Z,57.47
2022-12-11T00:39:09.010Z,58.77
2022-12-11T00:41:35.382Z,57.13
2022-12-11T00:44:01.808Z,58.05
2022-12-11T00:46:28.308Z,57.47
2022-12-11T00:48:55.001Z,56.70
2022-12-11T00:51:21.727Z,57.15
2022-12-11T00:53:48.372Z,57.99
2022-12-11T00:56:15.129Z,56.05
2022-12-11T00:58:41.766Z,55.19
2022-12-11T01:01:09.333Z,54.32
2022-12-11T01:03:35.837Z,55.86
2022-12-11T01:06:02.305Z,54.77
2022-12-11T01:08:30.757Z,55.34
2022-12-11T01:10:59.763Z,56.92
2022-12-11T01:13:26.229Z,55.60
2022-12-11T01:15:52.835Z,55.01
2022-12-11T01:18:19.289Z,56.08
2022-12-11T01:20:45.810Z,55.02
2022-12-11T01:23:12.319Z,56.89
2022-12-11T01:25:38.873Z,54.74
2022-12-11T01:28:05.348Z,55.41
2022-12-11T01:30:33.308Z,54.03
2022-12-11T01:32:59.852Z,53.34
2022-12-11T01:35:26.381Z,52.87
2022-12-11T01:37:53.135Z,53.67
2022-12-11T01:40:19.511Z,52.32
2022-12-11T01:42:45.978Z,53.50
2022-12-11T01:45:12.583Z,53.42
2022-12-11T01:47:39.460Z,55.27
2022-12-11T01:50:06.004Z,53.61
2022-12-11T01:52:32.435Z,53.77
2022-12-11T01:55:01.097Z,54.21
2022-12-11T01:57:27.536Z,52.67
2022-12-11T01:59:53.967Z,53.96
2022-12-11T02:02:20.430Z,55.92
2022-12-11T02:04:46.864Z,53.42
2022-12-11T02:07:14.625Z,52.70
2022-12-11T02:09:41.805Z,54.17
2022-12-11T02:12:08.683Z,53.36
2022-12-11T02:14:35.424Z,52.75
2022-12-11T02:17:01.906Z,52.84
2022-12-11T02:19:28.526Z,52.25
2022-12-11T02:21:55.159Z,50.92
2022-12-11T02:24:22.076Z,52.40
2022-12-11T02:26:48.515Z,52.13
2022-12-11T02:29:16.299Z,52.08
2022-12-11T02:31:43.304Z,51.46
2022-12-11T02:34:10.200Z,51.03
2022-12-11T02:36:36.620Z,53.23
2022-12-11T02:39:03.330Z,53.07
2022-12-11T02:41:30.036Z,52.27
2022-12-11T02:43:56.551Z,52.60
2022-12-11T02:46:23.078Z,51.72
2022-12-11T02:48:49.490Z,51.40
2022-12-11T02:51:15.995Z,52.41
2022-12-11T02:53:42.299Z,51.98
2022-12-11T02:56:08.735Z,51.26
2022-12-11T02:58:35.075Z,53.99
2022-12-11T03:01:02.754Z,53.19
2022-12-11T03:03:29.643Z,53.19
2022-12-11T03:05:56.061Z,53.34
2022-12-11T03:08:22.572Z,53.33
2022-12-11T03:10:48.942Z,51.98
2022-12-11T03:13:15.344Z,52.68
2022-12-11T03:15:41.728Z,50.97
2022-12-11T03:18:08.233Z,51.24
2022-12-11T03:20:35.706Z,53.43
2022-12-11T03:23:02.107Z,51.75
2022-12-11T03:25:30.856Z,52.87
2022-12-11T03:27:57.261Z,52.82
2022-12-11T03:30:23.717Z,52.85
2022-12-11T03:32:50.156Z,52.70
2022-12-11T03:35:16.736Z,52.30
2022-12-11T03:37:43.143Z,53.41
2022-12-11T03:40:11.601Z,52.74
2022-12-11T03:42:40.933Z,52.84
2022-12-11T03:45:08.465Z,52.57
2022-12-11T03:47:35.097Z,53.53
2022-12-11T03:50:01.627Z,54.65
2022-12-11T03:52:28.305Z,53.80
2022-12-11T03:54:54.882Z,52.90
2022-12-11T03:57:21.355Z,51.05
2022-12-11T03:59:48.508Z,52.58
2022-12-11T04:02:15.045Z,52.08
2022-12-11T04:04:42.461Z,51.45
2022-12-11T04:07:08.835Z,51.91
2022-12-11T04:09:36.522Z,52.29
2022-12-11T04:12:02.884Z,53.58
2022-12-11T04:14:29.263Z,52.66
2022-12-11T04:16:56.095Z,53.64
2022-12-11T04:19:22.636Z,55.35
2022-12-11T04:21:49.045Z,54.38
2022-12-11T04:24:15.565Z,54.44
2022-12-11T04:26:42.041Z,59.31
2022-12-11T04:29:08.684Z,68.50
2022-12-11T04:31:35.083Z,59.65
2022-12-11T04:34:01.690Z,54.36
2022-12-11T04:36:28.109Z,55.77
2022-12-11T04:38:54.480Z,55.65
2022-12-11T04:41:20.889Z,56.58
2022-12-11T04:43:47.429Z,54.20
2022-12-11T04:46:14.262Z,55.60
2022-12-11T04:48:41.209Z,56.90
2022-12-11T04:51:07.569Z,57.33
2022-12-11T04:53:33.943Z,57.32
2022-12-11T04:56:00.384Z,60.25
2022-12-11T04:58:26.874Z,57.07
2022-12-11T05:00:53.280Z,60.47
2022-12-11T05:03:19.942Z,59.31
2022-12-11T05:05:46.358Z,60.95
2022-12-11T05:08:12.773Z,57.27
2022-12-11T05:10:39.387Z,58.87
2022-12-11T05:13:05.764Z,60.13
2022-12-11T05:15:32.208Z,58.22
2022-12-11T05:17:59.218Z,59.52
2022-12-11T05:20:25.559Z,61.60
2022-12-11T05:22:52.264Z,63.49
2022-12-11T05:25:20.710Z,62.95
2022-12-11T05:27:47.156Z,68.13
2022-12-11T05:30:13.522Z,63.46
2022-12-11T05:32:42.547Z,61.85
2022-12-11T05:35:09.119Z,60.57
2022-12-11T05:37:35.981Z,59.17
2022-12-11T05:40:02.402Z,63.83
2022-12-11T05:42:29.384Z,61.36
2022-12-11T05:44:55.769Z,59.38
2022-12-11T05:47:22.169Z,60.38
2022-12-11T05:49:48.592Z,60.48
2022-12-11T05:52:14.960Z,60.15
2022-12-11T05:54:41.681Z,62.99
2022-12-11T05:57:08.116Z,60.71
2022-12-11T05:59:37.042Z,59.24
2022-12-11T06:02:03.612Z,61.19
2022-12-11T06:04:30.081Z,58.62
2022-12-11T06:06:56.511Z,58.94
2022-12-11T06:09:23.114Z,59.22
2022-12-11T06:11:49.682Z,56.73
2022-12-11T06:14:17.194Z,57.20
2022-12-11T06:16:43.629Z,62.74
2022-12-11T06:19:10.298Z,61.00
2022-12-11T06:21:36.809Z,60.47
2022-12-11T06:24:03.247Z,58.75
2022-12-11T06:26:29.984Z,56.88
2022-12-11T06:28:56.427Z,56.86
2022-12-11T06:31:22.902Z,57.99
2022-12-11T06:33:53.683Z,55.49
2022-12-11T06:36:20.065Z,56.40
2022-12-11T06:38:46.642Z,55.76
2022-12-11T06:41:13.227Z,56.84
2022-12-11T06:43:39.654Z,56.18
2022-12-11T06:46:06.723Z,54.17
2022-12-11T06:48:33.163Z,54.40
2022-12-11T06:50:59.575Z,52.74
2022-12-11T06:53:26.020Z,53.36
2022-12-11T06:55:53.325Z,54.87
2022-12-11T06:58:19.691Z,53.77
2022-12-11T07:00:46.204Z,53.67
2022-12-11T07:03:12.600Z,52.50
2022-12-11T07:05:38.994Z,51.50
2022-12-11T07:08:05.423Z,54.12
2022-12-11T07:10:32.061Z,52.82
2022-12-11T07:12:58.482Z,53.47
2022-12-11T07:15:26.632Z,52.57
2022-12-11T07:17:53.141Z,54.35
2022-12-11T07:20:19.566Z,52.56
2022-12-11T07:22:46.879Z,52.47
2022-12-11T07:25:13.791Z,52.77
2022-12-11T07:27:40.304Z,54.34
2022-12-11T07:30:06.755Z,54.00
2022-12-11T07:32:33.198Z,53.71
2022-12-11T07:34:59.691Z,53.85
2022-12-11T07:37:26.262Z,53.01
2022-12-11T07:39:55.075Z,53.94
2022-12-11T07:42:21.540Z,52.47
2022-12-11T07:44:48.264Z,53.81
2022-12-11T07:47:14.667Z,52.11
2022-12-11T07:49:41.056Z,53.14
2022-12-11T07:52:07.862Z,52.92
2022-12-11T07:54:34.235Z,51.42
2022-12-11T07:57:00.645Z,51.99
2022-12-11T07:59:27.088Z,52.14
2022-12-11T08:01:53.589Z,51.39
2022-12-11T08:04:20.101Z,52.49
2022-12-11T08:06:46.478Z,54.09
2022-12-11T08:09:19.139Z,53.57
2022-12-11T08:11:47.593Z,54.50
2022-12-11T08:14:14.035Z,52.83
2022-12-11T08:16:40.497Z,51.33
2022-12-11T08:19:06.979Z,51.60
2022-12-11T08:21:34.596Z,53.70
2022-12-11T08:24:00.971Z,52.88
2022-12-11T08:26:27.346Z,52.77
2022-12-11T08:28:53.691Z,54.41
2022-12-11T08:31:20.445Z,51.99
2022-12-11T08:33:46.859Z,51.42
2022-12-11T08:36:13.286Z,51.51
2022-12-11T08:38:39.710Z,50.92
2022-12-11T08:41:06.160Z,50.38
2022-12-11T08:43:32.690Z,50.60
2022-12-11T08:45:59.230Z,50.79
2022-12-11T08:48:26.062Z,51.36
2022-12-11T08:50:52.576Z,50.46
2022-12-11T08:53:18.958Z,51.65
2022-12-11T08:55:45.397Z,50.49
2022-12-11T08:58:12.586Z,51.39
2022-12-11T09:00:39.607Z,49.90
2022-12-11T09:03:11.310Z,49.02
2022-12-11T09:05:39.288Z,49.88
2022-12-11T09:08:08.083Z,49.69
2022-12-11T09:10:34.440Z,48.98
2022-12-11T09:13:01.887Z,49.66
2022-12-11T09:15:28.316Z,60.41
2022-12-11T09:17:54.747Z,49.92
2022-12-11T09:20:21.200Z,49.22
2022-12-11T09:22:47.618Z,47.68
2022-12-11T09:25:14.084Z,48.92
2022-12-11T09:27:40.573Z,48.93
2022-12-11T09:30:06.961Z,47.83
2022-12-11T09:32:33.571Z,47.58
2022-12-11T09:35:00.655Z,49.39
2022-12-11T09:37:27.083Z,48.60
2022-12-11T09:39:54.551Z,50.01
2022-12-11T09:42:22.128Z,50.33
2022-12-11T09:44:50.299Z,49.18
2022-12-11T09:47:17.683Z,48.22
2022-12-11T09:49:47.350Z,47.87
2022-12-11T09:52:14.091Z,48.83
2022-12-11T09:54:41.500Z,48.26
2022-12-11T09:57:07.894Z,48.13
2022-12-11T09:59:34.994Z,47.79
2022-12-11T10:02:01.501Z,46.95
2022-12-11T10:04:30.062Z,48.12
2022-12-11T10:06:58.629Z,48.00
2022-12-11T10:09:25.011Z,48.14
2022-12-11T10:11:56.383Z,48.77
2022-12-11T10:14:23.546Z,48.28
2022-12-11T10:16:49.948Z,48.52
2022-12-11T10:19:17.518Z,48.58
2022-12-11T10:21:44.461Z,48.52
2022-12-11T10:24:11.875Z,47.42
2022-12-11T10:26:38.265Z,48.63
2022-12-11T10:29:04.889Z,49.92
2022-12-11T10:31:31.308Z,48.82
2022-12-11T10:33:58.625Z,47.24
2022-12-11T10:36:26.292Z,47.54
2022-12-11T10:38:52.669Z,46.73
2022-12-11T10:41:19.063Z,46.67
2022-12-11T10:43:46.479Z,47.29
2022-12-11T10:46:12.955Z,48.19
2022-12-11T10:48:45.262Z,47.02
2022-12-11T10:51:11.894Z,47.31
2022-12-11T10:53:38.352Z,48.04
2022-12-11T10:56:04.749Z,46.00
2022-12-11T10:58:31.220Z,46.41
2022-12-11T11:00:57.615Z,46.07
2022-12-11T11:03:24.659Z,47.23
2022-12-11T11:05:51.255Z,48.82
2022-12-11T11:08:17.746Z,49.12
2022-12-11T11:10:44.356Z,48.49
2022-12-11T11:13:13.195Z,48.17
2022-12-11T11:15:39.601Z,47.36
2022-12-11T11:18:06.283Z,47.62
2022-12-11T11:20:33.721Z,46.72
2022-12-11T11:23:00.140Z,50.08
2022-12-11T11:25:26.654Z,49.23
2022-12-11T11:27:53.045Z,46.91
2022-12-11T11:30:19.431Z,47.50
2022-12-11T11:32:45.808Z,47.57
2022-12-11T11:35:12.684Z,46.78
2022-12-11T11:37:39.466Z,47.32
2022-12-11T11:40:05.868Z,45.92
2022-12-11T11:42:32.347Z,45.10
2022-12-11T11:44:58.756Z,46.27
2022-12-11T11:47:25.220Z,45.25
2022-12-11T11:49:51.772Z,45.49
2022-12-11T11:52:18.745Z,43.95
2022-12-11T11:54:45.243Z,45.45
2022-12-11T11:57:11.670Z,44.72
2022-12-11T11:59:38.308Z,46.14
2022-12-11T12:02:04.961Z,43.79
2022-12-11T12:04:31.385Z,43.86
2022-12-11T12:06:57.750Z,45.31
2022-12-11T12:09:24.338Z,46.00
2022-12-11T12:11:50.832Z,45.93
2022-12-11T12:14:50.716Z,47.55
2022-12-11T12:17:04.397Z,46.89
2022-12-11T12:19:30.827Z,46.15
2022-12-11T12:21:58.218Z,45.39
2022-12-11T12:24:24.613Z,46.48
2022-12-11T12:26:51.682Z,46.14
2022-12-11T12:29:18.546Z,47.82
2022-12-11T12:31:45.104Z,45.32
2022-12-11T12:34:11.640Z,46.89
2022-12-11T12:36:38.086Z,48.66
2022-12-11T12:39:04.802Z,46.12
2022-12-11T12:41:31.696Z,46.17
2022-12-11T12:43:58.447Z,46.95
2022-12-11T12:46:26.462Z,46.10
2022-12-11T12:48:52.956Z,47.19
2022-12-11T12:51:19.595Z,45.73
2022-12-11T12:53:46.263Z,46.72
2022-12-11T12:56:12.784Z,44.90
2022-12-11T12:58:39.751Z,47.40
2022-12-11T13:01:06.444Z,45.79
2022-12-11T13:03:33.070Z,46.19
2022-12-11T13:05:59.542Z,45.94
2022-12-11T13:08:26.209Z,46.44
2022-12-11T13:10:52.631Z,47.68
2022-12-11T13:13:19.090Z,45.17
2022-12-11T13:15:45.676Z,46.38
2022-12-11T13:18:12.748Z,46.03
2022-12-11T13:20:39.294Z,45.50
2022-12-11T13:23:05.997Z,46.31
2022-12-11T13:25:34.389Z,46.53
2022-12-11T13:28:05.551Z,45.77
2022-12-11T13:30:32.191Z,45.55
2022-12-11T13:32:58.707Z,45.14
2022-12-11T13:35:25.687Z,44.24
2022-12-11T13:37:52.476Z,44.13
2022-12-11T13:40:18.913Z,44.47
2022-12-11T13:42:45.296Z,44.82
2022-12-11T13:45:11.857Z,44.70
2022-12-11T13:47:39.819Z,45.28
2022-12-11T13:50:06.329Z,44.93
2022-12-11T13:52:32.801Z,45.48
2022-12-11T13:55:00.288Z,44.13
2022-12-11T13:57:26.868Z,44.25
2022-12-11T13:59:53.360Z,42.95
2022-12-11T14:02:19.856Z,42.31
2022-12-11T14:04:46.722Z,42.92
2022-12-11T14:07:13.463Z,45.00
2022-12-11T14:09:39.935Z,44.75
2022-12-11T14:12:06.386Z,44.47
2022-12-11T14:14:32.815Z,44.18
2022-12-11T14:16:59.395Z,43.44
2022-12-11T14:19:26.059Z,43.26
2022-12-11T14:21:52.702Z,43.35
2022-12-11T14:24:20.141Z,43.84
2022-12-11T14:26:46.588Z,43.04
2022-12-11T14:29:13.237Z,44.15
2022-12-11T14:31:41.012Z,43.84
2022-12-11T14:34:08.264Z,43.84
2022-12-11T14:36:35.085Z,43.32
2022-12-11T14:39:01.759Z,42.29
2022-12-11T14:41:28.320Z,43.08
2022-12-11T14:43:55.093Z,41.40
2022-12-11T14:46:21.906Z,43.15
2022-12-11T14:48:48.381Z,43.54
2022-12-11T14:51:16.863Z,43.49
2022-12-11T14:53:43.815Z,43.28
2022-12-11T14:56:10.248Z,44.78
2022-12-11T14:58:36.739Z,44.43
2022-12-11T15:01:03.162Z,42.39
2022-12-11T15:03:31.646Z,43.64
2022-12-11T15:05:58.747Z,43.94
2022-12-11T15:08:25.497Z,43.35
2022-12-11T15:10:54.417Z,44.02
2022-12-11T15:13:21.806Z,45.00
2022-12-11T15:15:48.475Z,43.48
2022-12-11T15:18:15.169Z,42.83
2022-12-11T15:20:41.624Z,42.94
2022-12-11T15:23:08.388Z,43.71
2022-12-11T15:25:34.913Z,43.63
2022-12-11T15:28:01.325Z,43.79
2022-12-11T15:30:28.768Z,43.33
2022-12-11T15:32:55.718Z,43.36
2022-12-11T15:35:22.207Z,44.04
2022-12-11T15:37:48.590Z,44.07
2022-12-11T15:40:15.846Z,43.35
2022-12-11T15:42:44.723Z,43.32
2022-12-11T15:45:11.525Z,43.38
2022-12-11T15:47:38.168Z,43.44
2022-12-11T15:50:04.636Z,44.46
2022-12-11T15:52:32.296Z,44.36
2022-12-11T15:54:58.711Z,44.51
2022-12-11T15:57:25.182Z,43.85
2022-12-11T15:59:52.532Z,43.42
2022-12-11T16:02:19.045Z,43.62
2022-12-11T16:04:46.270Z,43.55
2022-12-11T16:07:16.775Z,42.92
2022-12-11T16:09:43.407Z,43.24
2022-12-11T16:12:09.842Z,44.10
2022-12-11T16:14:38.660Z,43.84
2022-12-11T16:17:05.447Z,46.40
2022-12-11T16:19:32.439Z,43.62
2022-12-11T16:21:58.991Z,43.31
2022-12-11T16:24:26.567Z,43.19
2022-12-11T16:26:53.033Z,43.78
2022-12-11T16:29:19.461Z,44.50
2022-12-11T16:31:46.214Z,43.67
2022-12-11T16:34:13.098Z,44.02
2022-12-11T16:36:39.611Z,44.79
2022-12-11T16:39:06.027Z,44.58
2022-12-11T16:41:33.122Z,44.11
2022-12-11T16:43:59.979Z,43.19
2022-12-11T16:46:26.506Z,43.96
2022-12-11T16:48:54.377Z,44.83
2022-12-11T16:51:21.109Z,45.38
2022-12-11T16:53:47.972Z,44.28
2022-12-11T16:56:14.476Z,44.54
2022-12-11T16:58:41.162Z,44.30
2022-12-11T17:01:08.106Z,45.06
2022-12-11T17:03:34.917Z,44.13
2022-12-11T17:06:01.447Z,43.63
2022-12-11T17:08:29.196Z,46.64
2022-12-11T17:10:55.991Z,44.31
2022-12-11T17:13:22.719Z,43.04
2022-12-11T17:15:49.171Z,44.23
2022-12-11T17:18:18.352Z,45.44
2022-12-11T17:20:45.182Z,44.46
2022-12-11T17:23:11.666Z,44.54
2022-12-11T17:25:38.520Z,45.00
2022-12-11T17:28:06.185Z,46.13
2022-12-11T17:30:34.147Z,47.36
2022-12-11T17:33:04.424Z,47.40
2022-12-11T17:35:31.268Z,47.37
2022-12-11T17:37:57.950Z,47.66
2022-12-11T17:40:33.506Z,48.63
2022-12-11T17:43:02.525Z,50.49
2022-12-11T17:45:29.370Z,49.16
2022-12-11T17:47:56.256Z,50.57
2022-12-11T17:50:22.930Z,50.64
2022-12-11T17:52:49.472Z,50.00
2022-12-11T17:55:16.981Z,49.08
2022-12-11T17:57:44.930Z,49.97
2022-12-11T18:00:11.831Z,50.66
2022-12-11T18:02:38.859Z,50.13
2022-12-11T18:05:14.807Z,50.40
2022-12-11T18:07:43.818Z,49.77
2022-12-11T18:10:10.286Z,49.36
2022-12-11T18:12:36.979Z,49.21
2022-12-11T18:15:03.573Z,49.80
2022-12-11T18:17:31.051Z,52.16
2022-12-11T18:19:57.847Z,54.38
2022-12-11T18:22:24.550Z,52.98
2022-12-11T18:24:51.017Z,52.43
2022-12-11T18:27:17.837Z,52.36
2022-12-11T18:29:45.616Z,53.07
2022-12-11T18:32:13.689Z,52.69
2022-12-11T18:34:40.452Z,51.95
2022-12-11T18:37:06.931Z,52.48
2022-12-11T18:39:33.755Z,54.08
2022-12-11T18:42:31.335Z,52.31
2022-12-11T18:44:47.720Z,52.52
2022-12-11T18:47:14.727Z,51.37
2022-12-11T18:49:41.665Z,53.35
2022-12-11T18:52:09.660Z,52.33
2022-12-11T18:54:36.160Z,51.27
2022-12-11T18:57:02.948Z,51.13
2022-12-11T18:59:30.548Z,50.01
2022-12-11T19:01:57.453Z,52.01
2022-12-11T19:04:24.794Z,52.81
2022-12-11T19:06:51.843Z,51.37
2022-12-11T19:09:19.467Z,50.86
2022-12-11T19:11:46.151Z,50.83
2022-12-11T19:14:14.378Z,51.19
2022-12-11T19:16:41.255Z,52.28
2022-12-11T19:19:08.203Z,50.26
2022-12-11T19:21:35.209Z,50.27
2022-12-11T19:24:02.090Z,49.83
2022-12-11T19:26:28.950Z,50.63
2022-12-11T19:28:56.417Z,49.26
2022-12-11T19:31:24.085Z,48.79
2022-12-11T19:33:51.115Z,48.57
2022-12-11T19:36:18.204Z,48.90
2022-12-11T19:38:45.156Z,49.26
2022-12-11T19:41:12.814Z,48.73
2022-12-11T19:43:39.766Z,49.17
2022-12-11T19:46:06.722Z,49.04
2022-12-11T19:48:33.629Z,48.84
2022-12-11T19:51:00.739Z,49.48
2022-12-11T19:53:27.605Z,49.02
2022-12-11T19:55:54.590Z,48.38
2022-12-11T19:58:21.672Z,48.08
2022-12-11T20:00:48.313Z,48.26
2022-12-11T20:03:15.361Z,47.84
2022-12-11T20:05:44.575Z,48.12
2022-12-11T20:10:58.787Z,49.31
2022-12-11T20:13:25.587Z,51.09
2022-12-11T20:15:52.530Z,50.21
2022-12-11T20:18:22.371Z,48.67
2022-12-11T20:20:49.345Z,49.46
2022-12-11T20:23:16.214Z,49.34
2022-12-11T20:25:43.044Z,48.61
2022-12-11T20:28:09.819Z,49.24
2022-12-11T20:30:36.427Z,48.98
2022-12-11T20:33:06.138Z,50.33
2022-12-11T20:35:33.157Z,49.56
2022-12-11T20:37:59.854Z,49.53
2022-12-11T20:40:29.671Z,49.58
2022-12-11T20:42:59.304Z,49.03
2022-12-11T20:45:26.280Z,50.34
2022-12-11T20:47:53.249Z,52.15
2022-12-11T20:50:20.120Z,50.48
2022-12-11T20:52:47.959Z,49.63
2022-12-11T20:55:14.848Z,50.17
2022-12-11T20:57:45.018Z,49.91
2022-12-11T21:00:13.640Z,48.71
2022-12-11T21:02:44.143Z,49.94
2022-12-11T21:05:11.626Z,49.23
2022-12-11T21:07:39.092Z,50.21
2022-12-11T21:10:07.563Z,50.19
2022-12-11T21:12:33.929Z,49.65
2022-12-11T21:15:00.357Z,50.14
2022-12-11T21:17:26.810Z,50.74
2022-12-11T21:19:53.699Z,49.66
2022-12-11T21:22:22.333Z,48.64
2022-12-11T21:24:48.729Z,50.55
2022-12-11T21:27:15.432Z,50.23
2022-12-11T21:29:42.428Z,50.50
2022-12-11T21:32:11.940Z,49.74
2022-12-11T21:34:38.533Z,50.68
2022-12-11T21:37:06.335Z,49.95
2022-12-11T21:39:38.964Z,49.86
2022-12-11T21:42:05.804Z,49.68
2022-12-11T21:47:19.069Z,51.47
2022-12-11T21:49:45.407Z,48.66
2022-12-11T21:52:12.292Z,51.35
2022-12-11T21:54:38.775Z,50.98
2022-12-11T21:57:05.167Z,51.30
2022-12-11T21:59:31.835Z,48.96
2022-12-11T22:01:58.253Z,49.68
2022-12-11T22:04:24.652Z,48.06
2022-12-11T22:06:53.601Z,47.85
2022-12-11T22:09:19.994Z,48.87
2022-12-11T22:11:52.590Z,48.94
2022-12-11T22:14:26.187Z,48.82
2022-12-11T22:16:53.159Z,48.05
2022-12-11T22:19:19.715Z,48.37
2022-12-11T22:21:48.750Z,49.08
2022-12-11T22:24:16.154Z,47.50
2022-12-11T22:26:42.664Z,47.95
2022-12-11T22:29:09.596Z,47.67
2022-12-11T22:31:36.655Z,47.53
2022-12-11T22:34:03.188Z,46.58
2022-12-11T22:36:30.404Z,46.91
2022-12-11T22:38:58.139Z,46.62
2022-12-11T22:41:24.575Z,47.54
2022-12-11T22:43:50.955Z,48.27
2022-12-11T22:46:17.362Z,47.82
2022-12-11T22:48:43.935Z,48.01
2022-12-11T22:51:10.439Z,47.16
2022-12-11T22:53:36.919Z,46.41
2022-12-11T22:56:07.353Z,45.97
2022-12-11T22:58:34.152Z,46.57
2022-12-11T23:01:00.614Z,47.56
2022-12-11T23:03:27.177Z,48.19
2022-12-11T23:05:54.130Z,47.90
2022-12-11T23:08:21.899Z,47.64
2022-12-11T23:10:49.392Z,48.08
2022-12-11T23:13:16.795Z,47.55
2022-12-11T23:15:43.218Z,47.61
2022-12-11T23:18:09.644Z,47.30
2022-12-11T23:20:36.063Z,48.08
2022-12-11T23:23:02.799Z,47.78
2022-12-11T23:25:29.297Z,47.39
2022-12-11T23:27:55.900Z,47.84
2022-12-11T23:30:22.286Z,48.23
2022-12-11T23:32:49.263Z,47.34
2022-12-11T23:35:15.734Z,48.78
2022-12-11T23:37:42.533Z,48.80
2022-12-11T23:40:09.160Z,48.63
2022-12-11T23:42:35.687Z,48.66
2022-12-11T23:45:02.337Z,49.55
2022-12-11T23:47:28.779Z,49.32
2022-12-11T23:49:55.223Z,48.77
2022-12-11T23:52:22.066Z,48.22
2022-12-11T23:54:48.424Z,49.27
2022-12-11T23:57:14.935Z,48.95
2022-12-11T23:59:41.324Z,48.91
